Decoded Metar for EPRZ (RZESZOW in POLAND) (IATA:RZE) | Meteo·Mobile Aviation Weather
aviador You're here:

EPRZ Decoded Metar

RZESZOW in POLAND
Report Time2019-02-16 01:00:00
UTC Time2019-02-16 01:09:31
Flight Rules ifr IFR
Wind260° at 07 kt
W.Decomp.*RWY 27: 6.8 kt HW 1.8 kt LCW
W.Rank260° ranks 3
Current wind is below 260° avg. (8.5)
Visibility3500 m
Phenomena:Mist
Clouds:N/A
CeilingNone
Temp-1°C (ISA -15)
Dew Point-1°C (100% RH)
AAT-5.6°C
QNH1030 hPa
Density Alt-1,631 ft
Elevation663 ft
Report Wrong Elevation
Raw Report
METAR EPRZ 160100Z 26007KT 3500 BR NSC M01/M01 Q1030=

Extra information for EPRZ:More info

Metar Taf Metar & Taf Last 4 Metars F.Rules Stats Wind Profile Meteogram Temp Stats Airport Information Weather charts Add Link Nearby VenuesMetar ALERT Operation Metar Decoded Social comments